sensor_id;sensor_type;location;lat;lon;timestamp;temperature;humidity
45765;DHT22;31474;45.332;10.230;2023-01-16T00:00:54;7.70;99.90
45765;DHT22;31474;45.332;10.230;2023-01-16T00:03:20;7.80;99.90
45765;DHT22;31474;45.332;10.230;2023-01-16T00:05:46;7.80;99.90
45765;DHT22;31474;45.332;10.230;2023-01-16T00:08:12;7.80;99.90
45765;DHT22;31474;45.332;10.230;2023-01-16T00:10:39;7.80;99.90
45765;DHT22;31474;45.332;10.230;2023-01-16T00:13:05;7.80;99.90
45765;DHT22;31474;45.332;10.230;2023-01-16T00:15:30;7.80;99.90
45765;DHT22;31474;45.332;10.230;2023-01-16T00:17:56;7.80;99.90
45765;DHT22;31474;45.332;10.230;2023-01-16T00:20:22;7.80;99.90
45765;DHT22;31474;45.332;10.230;2023-01-16T00:22:48;7.80;99.90
45765;DHT22;31474;45.332;10.230;2023-01-16T00:25:14;7.80;99.90
45765;DHT22;31474;45.332;10.230;2023-01-16T00:27:39;7.80;99.90
45765;DHT22;31474;45.332;10.230;2023-01-16T00:30:05;7.90;99.90
45765;DHT22;31474;45.332;10.230;2023-01-16T00:32:32;7.80;99.90
45765;DHT22;31474;45.332;10.230;2023-01-16T00:34:58;7.80;99.90
45765;DHT22;31474;45.332;10.230;2023-01-16T00:37:23;7.80;99.90
45765;DHT22;31474;45.332;10.230;2023-01-16T00:39:49;7.90;99.90
45765;DHT22;31474;45.332;10.230;2023-01-16T00:42:17;7.80;99.90
45765;DHT22;31474;45.332;10.230;2023-01-16T00:44:42;7.80;99.90
45765;DHT22;31474;45.332;10.230;2023-01-16T00:47:08;7.80;99.90
45765;DHT22;31474;45.332;10.230;2023-01-16T00:49:34;7.80;99.90
45765;DHT22;31474;45.332;10.230;2023-01-16T00:51:59;7.80;99.90
45765;DHT22;31474;45.332;10.230;2023-01-16T00:54:25;7.80;99.90
45765;DHT22;31474;45.332;10.230;2023-01-16T00:56:51;7.80;99.90
45765;DHT22;31474;45.332;10.230;2023-01-16T00:59:16;7.80;99.90
45765;DHT22;31474;45.332;10.230;2023-01-16T01:01:42;7.80;99.90
45765;DHT22;31474;45.332;10.230;2023-01-16T01:04:08;7.90;99.90
45765;DHT22;31474;45.332;10.230;2023-01-16T01:06:34;7.90;99.90
45765;DHT22;31474;45.332;10.230;2023-01-16T01:09:00;7.90;99.90
45765;DHT22;31474;45.332;10.230;2023-01-16T01:11:25;7.90;99.90
45765;DHT22;31474;45.332;10.230;2023-01-16T01:13:51;7.80;99.90
45765;DHT22;31474;45.332;10.230;2023-01-16T01:16:17;7.80;99.90
45765;DHT22;31474;45.332;10.230;2023-01-16T01:18:43;7.90;99.90
45765;DHT22;31474;45.332;10.230;2023-01-16T01:21:09;7.80;99.90
45765;DHT22;31474;45.332;10.230;2023-01-16T01:23:35;7.80;99.90
45765;DHT22;31474;45.332;10.230;2023-01-16T01:26:08;7.80;99.90
45765;DHT22;31474;45.332;10.230;2023-01-16T01:28:34;7.80;99.90
45765;DHT22;31474;45.332;10.230;2023-01-16T01:31:09;7.80;99.90
45765;DHT22;31474;45.332;10.230;2023-01-16T01:33:35;7.80;99.90
45765;DHT22;31474;45.332;10.230;2023-01-16T01:36:02;7.90;99.90
45765;DHT22;31474;45.332;10.230;2023-01-16T01:38:27;7.90;99.90
45765;DHT22;31474;45.332;10.230;2023-01-16T01:40:53;7.90;99.90
45765;DHT22;31474;45.332;10.230;2023-01-16T01:43:19;7.80;99.90
45765;DHT22;31474;45.332;10.230;2023-01-16T01:45:53;7.80;99.90
45765;DHT22;31474;45.332;10.230;2023-01-16T01:48:34;7.80;99.90
45765;DHT22;31474;45.332;10.230;2023-01-16T01:51:08;7.90;99.90
45765;DHT22;31474;45.332;10.230;2023-01-16T01:54:02;7.90;99.90
45765;DHT22;31474;45.332;10.230;2023-01-16T01:56:49;7.90;99.90
45765;DHT22;31474;45.332;10.230;2023-01-16T01:59:33;7.80;99.90
45765;DHT22;31474;45.332;10.230;2023-01-16T02:02:02;7.90;99.90
45765;DHT22;31474;45.332;10.230;2023-01-16T02:04:33;7.90;99.90
45765;DHT22;31474;45.332;10.230;2023-01-16T02:07:02;7.90;99.90
45765;DHT22;31474;45.332;10.230;2023-01-16T02:09:30;7.90;99.90
45765;DHT22;31474;45.332;10.230;2023-01-16T02:11:58;7.90;99.90
45765;DHT22;31474;45.332;10.230;2023-01-16T02:14:29;7.80;99.90
45765;DHT22;31474;45.332;10.230;2023-01-16T02:17:17;7.90;99.90
45765;DHT22;31474;45.332;10.230;2023-01-16T02:25:46;7.80;99.90
45765;DHT22;31474;45.332;10.230;2023-01-16T02:31:48;7.80;99.90
45765;DHT22;31474;45.332;10.230;2023-01-16T02:45:49;7.80;99.90
45765;DHT22;31474;45.332;10.230;2023-01-16T02:53:26;7.80;99.90
45765;DHT22;31474;45.332;10.230;2023-01-16T02:56:05;7.80;99.90
45765;DHT22;31474;45.332;10.230;2023-01-16T02:58:37;7.80;99.90
45765;DHT22;31474;45.332;10.230;2023-01-16T03:01:04;7.80;99.90
45765;DHT22;31474;45.332;10.230;2023-01-16T03:06:44;7.80;99.90
45765;DHT22;31474;45.332;10.230;2023-01-16T03:09:31;7.80;99.90
45765;DHT22;31474;45.332;10.230;2023-01-16T03:17:42;7.80;99.90
45765;DHT22;31474;45.332;10.230;2023-01-16T03:26:00;7.80;99.90
45765;DHT22;31474;45.332;10.230;2023-01-16T03:29:08;7.80;99.90
45765;DHT22;31474;45.332;10.230;2023-01-16T03:31:50;7.70;99.90
45765;DHT22;31474;45.332;10.230;2023-01-16T03:37:08;7.70;99.90
45765;DHT22;31474;45.332;10.230;2023-01-16T03:39:39;7.80;99.90
45765;DHT22;31474;45.332;10.230;2023-01-16T03:45:05;7.70;99.90
45765;DHT22;31474;45.332;10.230;2023-01-16T03:47:39;7.70;99.90
45765;DHT22;31474;45.332;10.230;2023-01-16T03:50:08;7.70;99.90
45765;DHT22;31474;45.332;10.230;2023-01-16T03:52:40;7.70;99.90
45765;DHT22;31474;45.332;10.230;2023-01-16T03:57:50;7.70;99.90
45765;DHT22;31474;45.332;10.230;2023-01-16T04:00:18;7.70;99.90
45765;DHT22;31474;45.332;10.230;2023-01-16T04:02:51;7.70;99.90
45765;DHT22;31474;45.332;10.230;2023-01-16T04:05:36;7.70;99.90
45765;DHT22;31474;45.332;10.230;2023-01-16T04:08:09;7.70;99.90
45765;DHT22;31474;45.332;10.230;2023-01-16T04:10:40;7.70;99.90
45765;DHT22;31474;45.332;10.230;2023-01-16T04:13:10;7.70;99.90
45765;DHT22;31474;45.332;10.230;2023-01-16T04:15:42;7.70;99.90
45765;DHT22;31474;45.332;10.230;2023-01-16T04:18:10;7.70;99.90
45765;DHT22;31474;45.332;10.230;2023-01-16T04:20:36;7.70;99.90
45765;DHT22;31474;45.332;10.230;2023-01-16T04:23:02;7.70;99.90
45765;DHT22;31474;45.332;10.230;2023-01-16T04:25:28;7.70;99.90
45765;DHT22;31474;45.332;10.230;2023-01-16T04:27:53;7.70;99.90
45765;DHT22;31474;45.332;10.230;2023-01-16T04:30:19;7.70;99.90
45765;DHT22;31474;45.332;10.230;2023-01-16T04:32:45;7.70;99.90
45765;DHT22;31474;45.332;10.230;2023-01-16T04:35:11;7.70;99.90
45765;DHT22;31474;45.332;10.230;2023-01-16T04:37:37;7.70;99.90
45765;DHT22;31474;45.332;10.230;2023-01-16T04:40:03;7.70;99.90
45765;DHT22;31474;45.332;10.230;2023-01-16T04:42:29;7.70;99.90
45765;DHT22;31474;45.332;10.230;2023-01-16T04:44:54;7.70;99.90
45765;DHT22;31474;45.332;10.230;2023-01-16T04:47:20;7.70;99.90
45765;DHT22;31474;45.332;10.230;2023-01-16T04:49:46;7.70;99.90
45765;DHT22;31474;45.332;10.230;2023-01-16T04:52:12;7.70;99.90
45765;DHT22;31474;45.332;10.230;2023-01-16T04:54:38;7.70;99.90
45765;DHT22;31474;45.332;10.230;2023-01-16T04:57:04;7.70;99.90
45765;DHT22;31474;45.332;10.230;2023-01-16T04:59:29;7.70;99.90
45765;DHT22;31474;45.332;10.230;2023-01-16T05:01:55;7.70;99.90
45765;DHT22;31474;45.332;10.230;2023-01-16T05:04:20;7.70;99.90
45765;DHT22;31474;45.332;10.230;2023-01-16T05:06:46;7.70;99.90
45765;DHT22;31474;45.332;10.230;2023-01-16T05:09:12;7.70;99.90
45765;DHT22;31474;45.332;10.230;2023-01-16T05:11:38;7.70;99.90
45765;DHT22;31474;45.332;10.230;2023-01-16T05:14:04;7.60;99.90
45765;DHT22;31474;45.332;10.230;2023-01-16T05:16:37;7.60;99.90
45765;DHT22;31474;45.332;10.230;2023-01-16T05:19:03;7.50;99.90
45765;DHT22;31474;45.332;10.230;2023-01-16T05:21:29;7.50;99.90
45765;DHT22;31474;45.332;10.230;2023-01-16T05:23:54;7.60;99.90
45765;DHT22;31474;45.332;10.230;2023-01-16T05:26:20;7.60;99.90
45765;DHT22;31474;45.332;10.230;2023-01-16T05:28:46;7.60;99.90
45765;DHT22;31474;45.332;10.230;2023-01-16T05:31:11;7.60;99.90
45765;DHT22;31474;45.332;10.230;2023-01-16T05:33:37;7.60;99.90
45765;DHT22;31474;45.332;10.230;2023-01-16T05:36:03;7.50;99.90
45765;DHT22;31474;45.332;10.230;2023-01-16T05:38:28;7.50;99.90
45765;DHT22;31474;45.332;10.230;2023-01-16T05:40:54;7.40;99.90
45765;DHT22;31474;45.332;10.230;2023-01-16T05:43:20;7.40;99.90
45765;DHT22;31474;45.332;10.230;2023-01-16T05:45:45;7.30;99.90
45765;DHT22;31474;45.332;10.230;2023-01-16T05:48:11;7.30;99.90
45765;DHT22;31474;45.332;10.230;2023-01-16T05:50:37;7.40;99.90
45765;DHT22;31474;45.332;10.230;2023-01-16T05:53:03;7.40;99.90
45765;DHT22;31474;45.332;10.230;2023-01-16T05:55:28;7.40;99.90
45765;DHT22;31474;45.332;10.230;2023-01-16T05:57:54;7.40;99.90
45765;DHT22;31474;45.332;10.230;2023-01-16T06:00:20;7.40;99.90
45765;DHT22;31474;45.332;10.230;2023-01-16T06:02:45;7.40;99.90
45765;DHT22;31474;45.332;10.230;2023-01-16T06:05:14;7.30;99.90
45765;DHT22;31474;45.332;10.230;2023-01-16T06:07:40;7.30;99.90
45765;DHT22;31474;45.332;10.230;2023-01-16T06:10:08;7.30;99.90
45765;DHT22;31474;45.332;10.230;2023-01-16T06:12:34;7.30;99.90
45765;DHT22;31474;45.332;10.230;2023-01-16T06:15:00;7.30;99.90
45765;DHT22;31474;45.332;10.230;2023-01-16T06:17:25;7.30;99.90
45765;DHT22;31474;45.332;10.230;2023-01-16T06:19:51;7.30;99.90
45765;DHT22;31474;45.332;10.230;2023-01-16T06:22:17;7.30;99.90
45765;DHT22;31474;45.332;10.230;2023-01-16T06:24:43;7.20;99.90
45765;DHT22;31474;45.332;10.230;2023-01-16T06:27:08;7.20;99.90
45765;DHT22;31474;45.332;10.230;2023-01-16T06:29:34;7.30;99.90
45765;DHT22;31474;45.332;10.230;2023-01-16T06:32:00;7.30;99.90
45765;DHT22;31474;45.332;10.230;2023-01-16T06:34:25;7.30;99.90
45765;DHT22;31474;45.332;10.230;2023-01-16T06:36:51;7.40;99.90
45765;DHT22;31474;45.332;10.230;2023-01-16T06:39:17;7.30;99.90
45765;DHT22;31474;45.332;10.230;2023-01-16T06:41:42;7.40;99.90
45765;DHT22;31474;45.332;10.230;2023-01-16T06:44:08;7.40;99.90
45765;DHT22;31474;45.332;10.230;2023-01-16T06:46:34;7.40;99.90
45765;DHT22;31474;45.332;10.230;2023-01-16T06:49:00;7.50;99.90
45765;DHT22;31474;45.332;10.230;2023-01-16T06:51:26;7.40;99.90
45765;DHT22;31474;45.332;10.230;2023-01-16T06:53:51;7.40;99.90
45765;DHT22;31474;45.332;10.230;2023-01-16T06:56:17;7.30;99.90
45765;DHT22;31474;45.332;10.230;2023-01-16T06:58:43;7.20;99.90
45765;DHT22;31474;45.332;10.230;2023-01-16T07:01:09;7.00;99.90
45765;DHT22;31474;45.332;10.230;2023-01-16T07:03:35;6.90;99.90
45765;DHT22;31474;45.332;10.230;2023-01-16T07:06:01;6.90;99.90
45765;DHT22;31474;45.332;10.230;2023-01-16T07:08:26;6.90;99.90
45765;DHT22;31474;45.332;10.230;2023-01-16T07:10:52;6.90;99.90
45765;DHT22;31474;45.332;10.230;2023-01-16T07:13:18;6.90;99.90
45765;DHT22;31474;45.332;10.230;2023-01-16T07:15:48;6.90;99.90
45765;DHT22;31474;45.332;10.230;2023-01-16T07:18:33;6.80;99.90
45765;DHT22;31474;45.332;10.230;2023-01-16T07:21:25;6.90;99.90
45765;DHT22;31474;45.332;10.230;2023-01-16T07:24:12;6.90;99.90
45765;DHT22;31474;45.332;10.230;2023-01-16T07:26:41;6.80;99.90
45765;DHT22;31474;45.332;10.230;2023-01-16T07:29:30;6.80;99.90
45765;DHT22;31474;45.332;10.230;2023-01-16T07:31:57;6.70;99.90
45765;DHT22;31474;45.332;10.230;2023-01-16T07:34:24;6.60;99.90
45765;DHT22;31474;45.332;10.230;2023-01-16T07:36:50;6.60;99.90
45765;DHT22;31474;45.332;10.230;2023-01-16T07:39:15;6.50;99.90
45765;DHT22;31474;45.332;10.230;2023-01-16T07:41:41;6.50;99.90
45765;DHT22;31474;45.332;10.230;2023-01-16T07:44:07;6.60;99.90
45765;DHT22;31474;45.332;10.230;2023-01-16T07:46:32;6.60;99.90
45765;DHT22;31474;45.332;10.230;2023-01-16T07:48:58;6.60;99.90
45765;DHT22;31474;45.332;10.230;2023-01-16T07:51:24;6.60;99.90
45765;DHT22;31474;45.332;10.230;2023-01-16T07:53:50;6.60;99.90
45765;DHT22;31474;45.332;10.230;2023-01-16T07:56:15;6.60;99.90
45765;DHT22;31474;45.332;10.230;2023-01-16T07:58:41;6.70;99.90
45765;DHT22;31474;45.332;10.230;2023-01-16T08:01:09;6.70;99.90
45765;DHT22;31474;45.332;10.230;2023-01-16T08:03:35;6.70;99.90
45765;DHT22;31474;45.332;10.230;2023-01-16T08:06:00;6.70;99.90
45765;DHT22;31474;45.332;10.230;2023-01-16T08:08:28;6.70;99.90
45765;DHT22;31474;45.332;10.230;2023-01-16T08:10:56;6.70;99.90
45765;DHT22;31474;45.332;10.230;2023-01-16T08:13:22;6.70;99.90
45765;DHT22;31474;45.332;10.230;2023-01-16T08:15:48;6.70;99.90
45765;DHT22;31474;45.332;10.230;2023-01-16T08:18:16;6.70;99.90
45765;DHT22;31474;45.332;10.230;2023-01-16T08:20:43;6.60;99.90
45765;DHT22;31474;45.332;10.230;2023-01-16T08:23:10;6.60;99.90
45765;DHT22;31474;45.332;10.230;2023-01-16T08:25:35;6.60;99.90
45765;DHT22;31474;45.332;10.230;2023-01-16T08:28:01;6.60;99.90
45765;DHT22;31474;45.332;10.230;2023-01-16T08:30:27;6.50;99.90
45765;DHT22;31474;45.332;10.230;2023-01-16T08:33:00;6.50;99.90
45765;DHT22;31474;45.332;10.230;2023-01-16T08:35:25;6.60;99.90
45765;DHT22;31474;45.332;10.230;2023-01-16T08:37:51;6.60;99.90
45765;DHT22;31474;45.332;10.230;2023-01-16T08:40:17;6.50;99.90
45765;DHT22;31474;45.332;10.230;2023-01-16T08:42:43;6.60;99.90
45765;DHT22;31474;45.332;10.230;2023-01-16T08:45:27;6.60;99.90
45765;DHT22;31474;45.332;10.230;2023-01-16T08:48:17;6.60;99.90
45765;DHT22;31474;45.332;10.230;2023-01-16T08:51:04;6.70;99.90
45765;DHT22;31474;45.332;10.230;2023-01-16T08:53:49;6.60;99.90
45765;DHT22;31474;45.332;10.230;2023-01-16T08:56:14;6.60;99.90
45765;DHT22;31474;45.332;10.230;2023-01-16T08:58:40;6.70;99.90
45765;DHT22;31474;45.332;10.230;2023-01-16T09:01:06;6.70;99.90
45765;DHT22;31474;45.332;10.230;2023-01-16T09:03:32;6.70;99.90
45765;DHT22;31474;45.332;10.230;2023-01-16T09:06:00;6.70;99.90
45765;DHT22;31474;45.332;10.230;2023-01-16T09:08:25;6.70;99.90
45765;DHT22;31474;45.332;10.230;2023-01-16T09:10:51;6.60;99.90
45765;DHT22;31474;45.332;10.230;2023-01-16T09:13:35;6.50;99.90
45765;DHT22;31474;45.332;10.230;2023-01-16T09:16:21;6.60;99.90
45765;DHT22;31474;45.332;10.230;2023-01-16T09:18:47;6.60;99.90
45765;DHT22;31474;45.332;10.230;2023-01-16T09:21:13;6.60;99.90
45765;DHT22;31474;45.332;10.230;2023-01-16T09:23:39;6.70;99.90
45765;DHT22;31474;45.332;10.230;2023-01-16T09:26:05;6.80;99.90
45765;DHT22;31474;45.332;10.230;2023-01-16T09:28:31;6.70;99.90
45765;DHT22;31474;45.332;10.230;2023-01-16T09:30:56;6.80;99.90
45765;DHT22;31474;45.332;10.230;2023-01-16T09:33:22;6.70;99.90
45765;DHT22;31474;45.332;10.230;2023-01-16T09:35:47;6.70;99.90
45765;DHT22;31474;45.332;10.230;2023-01-16T09:38:13;6.60;99.90
45765;DHT22;31474;45.332;10.230;2023-01-16T09:40:43;6.70;99.90
45765;DHT22;31474;45.332;10.230;2023-01-16T09:48:52;6.60;99.90
45765;DHT22;31474;45.332;10.230;2023-01-16T09:51:24;6.60;99.90
45765;DHT22;31474;45.332;10.230;2023-01-16T09:53:54;6.60;99.90
45765;DHT22;31474;45.332;10.230;2023-01-16T09:56:42;6.50;99.90
45765;DHT22;31474;45.332;10.230;2023-01-16T09:59:40;6.50;99.90
45765;DHT22;31474;45.332;10.230;2023-01-16T10:02:24;6.70;99.90
45765;DHT22;31474;45.332;10.230;2023-01-16T10:04:52;6.60;99.90
45765;DHT22;31474;45.332;10.230;2023-01-16T10:12:35;6.70;99.90
45765;DHT22;31474;45.332;10.230;2023-01-16T10:23:12;6.70;99.90
45765;DHT22;31474;45.332;10.230;2023-01-16T10:26:08;6.60;99.90
45765;DHT22;31474;45.332;10.230;2023-01-16T10:31:27;6.50;99.90
45765;DHT22;31474;45.332;10.230;2023-01-16T10:34:02;6.50;99.90
45765;DHT22;31474;45.332;10.230;2023-01-16T10:36:33;6.50;99.90
45765;DHT22;31474;45.332;10.230;2023-01-16T10:39:00;6.50;99.90
45765;DHT22;31474;45.332;10.230;2023-01-16T10:41:33;6.50;99.90
45765;DHT22;31474;45.332;10.230;2023-01-16T10:44:34;6.40;99.90
45765;DHT22;31474;45.332;10.230;2023-01-16T10:47:32;6.30;99.90
45765;DHT22;31474;45.332;10.230;2023-01-16T10:50:19;6.30;99.90
45765;DHT22;31474;45.332;10.230;2023-01-16T10:52:46;6.20;99.90
45765;DHT22;31474;45.332;10.230;2023-01-16T10:55:13;6.30;99.90
45765;DHT22;31474;45.332;10.230;2023-01-16T10:57:45;6.20;99.90
45765;DHT22;31474;45.332;10.230;2023-01-16T11:00:18;6.20;99.90
45765;DHT22;31474;45.332;10.230;2023-01-16T11:02:46;6.30;99.90
45765;DHT22;31474;45.332;10.230;2023-01-16T11:05:29;6.30;99.90
45765;DHT22;31474;45.332;10.230;2023-01-16T11:08:01;6.30;99.90
45765;DHT22;31474;45.332;10.230;2023-01-16T11:10:29;6.30;99.90
45765;DHT22;31474;45.332;10.230;2023-01-16T11:12:55;6.40;99.90
45765;DHT22;31474;45.332;10.230;2023-01-16T11:16:49;6.40;99.90
45765;DHT22;31474;45.332;10.230;2023-01-16T11:19:21;6.40;99.90
45765;DHT22;31474;45.332;10.230;2023-01-16T11:21:58;6.40;99.90
45765;DHT22;31474;45.332;10.230;2023-01-16T11:24:35;6.40;99.90
45765;DHT22;31474;45.332;10.230;2023-01-16T11:27:04;6.40;99.90
45765;DHT22;31474;45.332;10.230;2023-01-16T11:29:37;6.50;99.90
45765;DHT22;31474;45.332;10.230;2023-01-16T11:32:07;6.50;99.90
45765;DHT22;31474;45.332;10.230;2023-01-16T11:34:36;6.40;99.90
45765;DHT22;31474;45.332;10.230;2023-01-16T11:37:05;6.40;99.90
45765;DHT22;31474;45.332;10.230;2023-01-16T11:39:34;6.40;99.90
45765;DHT22;31474;45.332;10.230;2023-01-16T11:42:09;6.40;99.90
45765;DHT22;31474;45.332;10.230;2023-01-16T11:44:57;6.50;99.90
45765;DHT22;31474;45.332;10.230;2023-01-16T11:47:44;6.40;99.90
45765;DHT22;31474;45.332;10.230;2023-01-16T11:50:32;6.50;99.90
45765;DHT22;31474;45.332;10.230;2023-01-16T11:52:58;6.40;99.90
45765;DHT22;31474;45.332;10.230;2023-01-16T11:55:39;6.50;99.90
45765;DHT22;31474;45.332;10.230;2023-01-16T12:00:57;6.50;99.90
45765;DHT22;31474;45.332;10.230;2023-01-16T12:14:20;6.60;99.90
45765;DHT22;31474;45.332;10.230;2023-01-16T12:17:03;6.70;99.90
45765;DHT22;31474;45.332;10.230;2023-01-16T12:22:36;6.80;99.90
45765;DHT22;31474;45.332;10.230;2023-01-16T12:25:32;6.80;99.90
45765;DHT22;31474;45.332;10.230;2023-01-16T12:34:32;7.00;99.90
45765;DHT22;31474;45.332;10.230;2023-01-16T12:40:25;7.00;99.90
45765;DHT22;31474;45.332;10.230;2023-01-16T12:45:59;7.00;99.90
45765;DHT22;31474;45.332;10.230;2023-01-16T12:57:21;6.90;99.90
45765;DHT22;31474;45.332;10.230;2023-01-16T13:01:51;6.90;99.90
45765;DHT22;31474;45.332;10.230;2023-01-16T13:04:33;7.00;99.90
45765;DHT22;31474;45.332;10.230;2023-01-16T13:07:01;7.00;99.90
45765;DHT22;31474;45.332;10.230;2023-01-16T13:09:49;7.10;99.90
45765;DHT22;31474;45.332;10.230;2023-01-16T13:12:25;7.20;99.90
45765;DHT22;31474;45.332;10.230;2023-01-16T13:15:18;7.20;99.90
45765;DHT22;31474;45.332;10.230;2023-01-16T13:17:56;7.20;99.90
45765;DHT22;31474;45.332;10.230;2023-01-16T13:20:24;7.20;99.90
45765;DHT22;31474;45.332;10.230;2023-01-16T13:23:04;7.10;99.90
45765;DHT22;31474;45.332;10.230;2023-01-16T13:25:46;7.20;99.90
45765;DHT22;31474;45.332;10.230;2023-01-16T13:31:36;7.10;99.90
45765;DHT22;31474;45.332;10.230;2023-01-16T13:34:22;7.10;99.90
45765;DHT22;31474;45.332;10.230;2023-01-16T13:39:49;7.20;99.90
45765;DHT22;31474;45.332;10.230;2023-01-16T13:42:19;7.20;99.90
45765;DHT22;31474;45.332;10.230;2023-01-16T13:44:50;7.30;99.90
45765;DHT22;31474;45.332;10.230;2023-01-16T13:47:39;7.30;99.90
45765;DHT22;31474;45.332;10.230;2023-01-16T13:50:28;7.20;99.90
45765;DHT22;31474;45.332;10.230;2023-01-16T13:52:56;7.30;99.90
45765;DHT22;31474;45.332;10.230;2023-01-16T13:55:30;7.20;99.90
45765;DHT22;31474;45.332;10.230;2023-01-16T13:58:26;7.30;99.90
45765;DHT22;31474;45.332;10.230;2023-01-16T14:01:03;7.30;99.90
45765;DHT22;31474;45.332;10.230;2023-01-16T14:03:31;7.30;99.90
45765;DHT22;31474;45.332;10.230;2023-01-16T14:08:47;7.30;99.90
45765;DHT22;31474;45.332;10.230;2023-01-16T14:17:05;7.30;99.90
45765;DHT22;31474;45.332;10.230;2023-01-16T14:19:58;7.40;99.90
45765;DHT22;31474;45.332;10.230;2023-01-16T14:22:40;7.40;99.90
45765;DHT22;31474;45.332;10.230;2023-01-16T14:25:20;7.50;99.90
45765;DHT22;31474;45.332;10.230;2023-01-16T14:27:50;7.50;99.90
45765;DHT22;31474;45.332;10.230;2023-01-16T14:30:24;7.50;99.90
45765;DHT22;31474;45.332;10.230;2023-01-16T14:32:54;7.50;99.90
45765;DHT22;31474;45.332;10.230;2023-01-16T14:35:40;7.60;99.90
45765;DHT22;31474;45.332;10.230;2023-01-16T14:38:14;7.60;99.90
45765;DHT22;31474;45.332;10.230;2023-01-16T14:40:56;7.60;99.90
45765;DHT22;31474;45.332;10.230;2023-01-16T14:44:15;7.70;99.90
45765;DHT22;31474;45.332;10.230;2023-01-16T14:50:14;7.70;99.90
45765;DHT22;31474;45.332;10.230;2023-01-16T14:56:28;7.70;99.90
45765;DHT22;31474;45.332;10.230;2023-01-16T15:01:31;7.80;99.90
45765;DHT22;31474;45.332;10.230;2023-01-16T15:04:19;7.90;99.90
45765;DHT22;31474;45.332;10.230;2023-01-16T15:06:54;7.70;99.90
45765;DHT22;31474;45.332;10.230;2023-01-16T15:09:21;7.70;99.90
45765;DHT22;31474;45.332;10.230;2023-01-16T15:11:51;7.80;99.90
45765;DHT22;31474;45.332;10.230;2023-01-16T15:14:21;7.70;99.90
45765;DHT22;31474;45.332;10.230;2023-01-16T15:22:51;7.80;99.90
45765;DHT22;31474;45.332;10.230;2023-01-16T15:28:22;7.80;99.90
45765;DHT22;31474;45.332;10.230;2023-01-16T15:30:49;7.80;99.90
45765;DHT22;31474;45.332;10.230;2023-01-16T15:33:37;7.80;99.90
45765;DHT22;31474;45.332;10.230;2023-01-16T15:36:23;7.80;99.90
45765;DHT22;31474;45.332;10.230;2023-01-16T15:41:21;7.80;99.90
45765;DHT22;31474;45.332;10.230;2023-01-16T15:44:11;7.80;99.90
45765;DHT22;31474;45.332;10.230;2023-01-16T15:50:06;7.80;99.90
45765;DHT22;31474;45.332;10.230;2023-01-16T15:52:34;7.80;99.90
45765;DHT22;31474;45.332;10.230;2023-01-16T15:55:19;7.80;99.90
45765;DHT22;31474;45.332;10.230;2023-01-16T15:57:49;7.80;99.90
45765;DHT22;31474;45.332;10.230;2023-01-16T16:02:56;7.80;99.90
45765;DHT22;31474;45.332;10.230;2023-01-16T16:05:22;7.90;99.90
45765;DHT22;31474;45.332;10.230;2023-01-16T16:07:50;7.90;99.90
45765;DHT22;31474;45.332;10.230;2023-01-16T16:10:15;7.80;99.90
45765;DHT22;31474;45.332;10.230;2023-01-16T16:13:04;7.80;99.90
45765;DHT22;31474;45.332;10.230;2023-01-16T16:15:31;7.80;99.90
45765;DHT22;31474;45.332;10.230;2023-01-16T16:18:17;7.70;99.90
45765;DHT22;31474;45.332;10.230;2023-01-16T16:20:45;7.70;99.90
45765;DHT22;31474;45.332;10.230;2023-01-16T16:23:18;7.70;99.90
45765;DHT22;31474;45.332;10.230;2023-01-16T16:28:34;7.70;99.90
45765;DHT22;31474;45.332;10.230;2023-01-16T16:31:15;7.60;99.90
45765;DHT22;31474;45.332;10.230;2023-01-16T16:33:43;7.60;99.90
45765;DHT22;31474;45.332;10.230;2023-01-16T16:36:17;7.60;99.90
45765;DHT22;31474;45.332;10.230;2023-01-16T16:38:47;7.50;99.90
45765;DHT22;31474;45.332;10.230;2023-01-16T16:43:55;7.50;99.90
45765;DHT22;31474;45.332;10.230;2023-01-16T16:48:53;7.60;99.90
45765;DHT22;31474;45.332;10.230;2023-01-16T16:51:31;7.60;99.90
45765;DHT22;31474;45.332;10.230;2023-01-16T16:54:05;7.60;99.90
45765;DHT22;31474;45.332;10.230;2023-01-16T16:56:35;7.60;99.90
45765;DHT22;31474;45.332;10.230;2023-01-16T16:59:02;7.60;99.90
45765;DHT22;31474;45.332;10.230;2023-01-16T17:01:29;7.70;99.90
45765;DHT22;31474;45.332;10.230;2023-01-16T17:04:02;7.70;99.90
45765;DHT22;31474;45.332;10.230;2023-01-16T17:06:32;7.70;99.90
45765;DHT22;31474;45.332;10.230;2023-01-16T17:08:59;7.70;99.90
45765;DHT22;31474;45.332;10.230;2023-01-16T17:11:26;7.70;99.90
45765;DHT22;31474;45.332;10.230;2023-01-16T17:13:51;7.70;99.90
45765;DHT22;31474;45.332;10.230;2023-01-16T17:18:45;7.80;99.90
45765;DHT22;31474;45.332;10.230;2023-01-16T17:21:16;7.80;99.90
45765;DHT22;31474;45.332;10.230;2023-01-16T17:23:43;7.80;99.90
45765;DHT22;31474;45.332;10.230;2023-01-16T17:26:09;7.80;99.90
45765;DHT22;31474;45.332;10.230;2023-01-16T17:28:37;7.90;99.90
45765;DHT22;31474;45.332;10.230;2023-01-16T17:31:19;7.90;99.90
45765;DHT22;31474;45.332;10.230;2023-01-16T17:33:46;7.90;99.90
45765;DHT22;31474;45.332;10.230;2023-01-16T17:36:23;7.90;99.90
45765;DHT22;31474;45.332;10.230;2023-01-16T17:38:50;7.90;99.90
45765;DHT22;31474;45.332;10.230;2023-01-16T17:41:22;7.80;99.90
45765;DHT22;31474;45.332;10.230;2023-01-16T17:43:54;7.80;99.90
45765;DHT22;31474;45.332;10.230;2023-01-16T17:46:38;7.80;99.90
45765;DHT22;31474;45.332;10.230;2023-01-16T17:49:04;7.90;99.90
45765;DHT22;31474;45.332;10.230;2023-01-16T17:51:30;7.90;99.90
45765;DHT22;31474;45.332;10.230;2023-01-16T17:53:57;7.90;99.90
45765;DHT22;31474;45.332;10.230;2023-01-16T17:56:23;7.80;99.90
45765;DHT22;31474;45.332;10.230;2023-01-16T17:58:50;7.80;99.90
45765;DHT22;31474;45.332;10.230;2023-01-16T18:01:25;7.80;99.90
45765;DHT22;31474;45.332;10.230;2023-01-16T18:03:53;7.80;99.90
45765;DHT22;31474;45.332;10.230;2023-01-16T18:06:35;7.80;99.90
45765;DHT22;31474;45.332;10.230;2023-01-16T18:09:02;7.80;99.90
45765;DHT22;31474;45.332;10.230;2023-01-16T18:11:32;7.80;99.90
45765;DHT22;31474;45.332;10.230;2023-01-16T18:14:16;7.80;99.90
45765;DHT22;31474;45.332;10.230;2023-01-16T18:17:00;7.80;99.90
45765;DHT22;31474;45.332;10.230;2023-01-16T18:19:44;7.80;99.90
45765;DHT22;31474;45.332;10.230;2023-01-16T18:22:10;7.70;99.90
45765;DHT22;31474;45.332;10.230;2023-01-16T18:24:37;7.70;99.90
45765;DHT22;31474;45.332;10.230;2023-01-16T18:27:06;7.70;99.90
45765;DHT22;31474;45.332;10.230;2023-01-16T18:29:32;7.70;99.90
45765;DHT22;31474;45.332;10.230;2023-01-16T18:31:58;7.70;99.90
45765;DHT22;31474;45.332;10.230;2023-01-16T18:34:43;7.80;99.90
45765;DHT22;31474;45.332;10.230;2023-01-16T18:37:08;7.80;99.90
45765;DHT22;31474;45.332;10.230;2023-01-16T18:39:34;7.80;99.90